Time;durP1;ratioP1;P1;durP2;ratioP2;P2;SDS_P1;SDS_P2;PMS_P1;PMS_P2;Temp;Humidity;BMP_temperature;BMP_pressure;BME280_temperature;BME280_humidity;BME280_pressure;Samples;Min_cycle;Max_cycle;Signal;HPM_P1;HPM_P2
2023/05/26 00:02:06;;;;;;;36.83;9.23;;;;;;;7.63;100.00;102751.31;5094160;28;20038;-53
2023/05/26 00:04:32;;;;;;;38.58;9.90;;;;;;;7.57;100.00;102755.22;5093720;28;20024;-54
2023/05/26 00:06:58;;;;;;;42.45;10.18;;;;;;;7.52;100.00;102745.41;5093617;28;20059;-54
2023/05/26 00:09:24;;;;;;;36.08;9.07;;;;;;;7.45;100.00;102746.63;5093957;28;20092;-53
2023/05/26 00:11:49;;;;;;;35.05;9.10;;;;;;;7.43;100.00;102750.75;5093841;28;20472;-54
2023/05/26 00:14:15;;;;;;;35.80;8.98;;;;;;;7.39;100.00;102748.75;5093405;28;20052;-53
2023/05/26 00:16:42;;;;;;;34.92;9.82;;;;;;;7.36;100.00;102758.75;5093917;28;20401;-53
2023/05/26 00:19:08;;;;;;;37.03;9.88;;;;;;;7.32;100.00;102761.88;5057237;28;1041738;-53
2023/05/26 00:21:35;;;;;;;36.28;10.35;;;;;;;7.30;100.00;102763.47;5094633;28;20039;-54
2023/05/26 00:24:01;;;;;;;37.50;9.82;;;;;;;7.28;100.00;102754.75;5094916;28;20036;-53
2023/05/26 00:26:26;;;;;;;36.58;9.40;;;;;;;7.24;100.00;102769.00;5093605;28;20364;-53
2023/05/26 00:28:51;;;;;;;40.17;9.05;;;;;;;7.19;100.00;102771.25;5094470;28;20032;-53
2023/05/26 00:31:17;;;;;;;32.20;8.93;;;;;;;7.16;100.00;102763.31;5094184;28;20024;-54
2023/05/26 00:33:42;;;;;;;41.85;9.60;;;;;;;7.12;100.00;102765.56;5093715;28;20027;-53
2023/05/26 00:36:07;;;;;;;34.80;9.20;;;;;;;7.10;100.00;102765.41;5094784;28;20439;-54
2023/05/26 00:38:33;;;;;;;33.17;9.10;;;;;;;7.05;100.00;102769.31;5094351;28;20459;-55
2023/05/26 00:40:58;;;;;;;35.95;9.48;;;;;;;7.01;100.00;102765.66;5093568;28;20023;-54
2023/05/26 00:43:24;;;;;;;39.00;9.73;;;;;;;6.97;100.00;102762.72;5094108;28;20028;-52
2023/05/26 00:45:49;;;;;;;39.78;10.90;;;;;;;6.94;100.00;102763.38;5094285;28;20016;-50
2023/05/26 00:48:14;;;;;;;43.22;10.65;;;;;;;6.92;100.00;102767.53;5092726;28;20035;-53
2023/05/26 00:50:40;;;;;;;40.70;10.98;;;;;;;6.90;100.00;102766.50;5094073;28;20141;-53
2023/05/26 00:53:07;;;;;;;38.80;10.93;;;;;;;6.87;100.00;102771.41;5094324;28;20421;-53
2023/05/26 00:55:32;;;;;;;34.85;10.02;;;;;;;6.86;100.00;102772.19;5093212;28;20050;-54
2023/05/26 00:57:58;;;;;;;37.20;9.73;;;;;;;6.84;100.00;102766.03;5094090;28;20368;-53
2023/05/26 01:00:24;;;;;;;39.13;10.70;;;;;;;6.79;100.00;102764.78;5093560;28;20448;-52
2023/05/26 01:02:55;;;;;;;40.47;10.38;;;;;;;6.72;100.00;102774.56;5093652;28;20043;-52
2023/05/26 01:05:21;;;;;;;40.97;10.73;;;;;;;6.72;100.00;102777.13;5093701;28;20460;-53
2023/05/26 01:07:46;;;;;;;41.08;10.52;;;;;;;6.66;100.00;102771.56;5093626;28;20077;-54
2023/05/26 01:10:12;;;;;;;38.17;10.05;;;;;;;6.67;100.00;102769.88;5093605;28;20463;-53
2023/05/26 01:12:48;;;;;;;38.03;10.52;;;;;;;6.64;100.00;102782.47;5093579;28;20032;-51
2023/05/26 01:15:20;;;;;;;42.90;10.75;;;;;;;6.56;100.00;102780.19;5093718;28;20027;-52
2023/05/26 01:17:57;;;;;;;34.17;10.93;;;;;;;6.57;100.00;102781.06;5093528;28;20499;-51
2023/05/26 01:20:31;;;;;;;36.90;10.50;;;;;;;6.55;100.00;102783.53;5093482;28;20024;-52
2023/05/26 01:23:17;;;;;;;45.20;10.82;;;;;;;6.55;100.00;102780.09;5092924;28;20107;-52
2023/05/26 01:26:18;;;;;;;35.22;9.68;;;;;;;6.55;100.00;102780.97;5093595;28;20464;-53
2023/05/26 01:28:44;;;;;;;36.65;9.80;;;;;;;6.59;100.00;102779.53;5093538;28;20050;-53
2023/05/26 01:31:10;;;;;;;34.70;9.20;;;;;;;6.56;100.00;102784.44;5093138;28;20027;-52
2023/05/26 01:33:35;;;;;;;39.88;10.55;;;;;;;6.53;100.00;102785.09;5093038;28;20046;-54
2023/05/26 01:36:01;;;;;;;39.25;9.80;;;;;;;6.51;100.00;102781.50;5093210;28;20558;-54
2023/05/26 01:38:28;;;;;;;36.60;9.27;;;;;;;6.49;100.00;102777.94;5092789;28;20020;-54
2023/05/26 01:41:01;;;;;;;38.10;9.52;;;;;;;6.49;100.00;102783.06;5094053;28;20028;-51
2023/05/26 01:43:38;;;;;;;34.13;8.63;;;;;;;6.52;100.00;102783.31;5092942;28;20062;-53
2023/05/26 01:46:35;;;;;;;39.73;10.10;;;;;;;6.60;100.00;102781.34;5093470;28;20111;-53
2023/05/26 01:49:04;;;;;;;33.35;8.15;;;;;;;6.51;100.00;102789.19;5093057;28;20410;-54
2023/05/26 01:51:33;;;;;;;40.90;9.93;;;;;;;6.51;100.00;102784.06;5092037;28;20426;-53
2023/05/26 01:54:01;;;;;;;43.63;10.05;;;;;;;6.44;100.00;102786.91;5093330;28;20024;-52
2023/05/26 01:56:28;;;;;;;39.72;8.68;;;;;;;6.43;100.00;102787.72;5092643;28;20020;-52
2023/05/26 01:58:56;;;;;;;34.67;8.15;;;;;;;6.39;100.00;102786.59;5092570;28;20035;-51
2023/05/26 02:01:25;;;;;;;38.92;8.88;;;;;;;6.35;100.00;102783.66;5092991;28;20035;-50
2023/05/26 02:03:50;;;;;;;38.75;9.07;;;;;;;6.35;100.00;102791.34;5093015;28;20077;-54
2023/05/26 02:06:15;;;;;;;42.88;10.30;;;;;;;6.32;100.00;102791.09;5092244;28;20028;-54
2023/05/26 02:08:41;;;;;;;34.97;8.75;;;;;;;6.35;100.00;102788.78;5092876;28;20486;-53
2023/05/26 02:11:06;;;;;;;36.60;8.95;;;;;;;6.35;100.00;102793.91;5092760;28;20082;-52
2023/05/26 02:13:31;;;;;;;48.08;10.02;;;;;;;6.32;100.00;102794.53;5091956;28;20032;-51
2023/05/26 02:15:57;;;;;;;35.75;8.63;;;;;;;6.30;100.00;102796.13;5093013;28;20436;-52
2023/05/26 02:18:22;;;;;;;35.28;9.57;;;;;;;6.31;100.00;102787.63;5092286;28;20040;-53
2023/05/26 02:20:47;;;;;;;35.58;9.30;;;;;;;6.31;100.00;102794.44;5092530;28;20103;-53
2023/05/26 02:23:13;;;;;;;35.95;8.30;;;;;;;6.26;100.00;102794.97;5092888;28;20063;-50
2023/05/26 02:25:38;;;;;;;32.85;8.50;;;;;;;6.28;100.00;102799.31;5092339;28;20024;-51
2023/05/26 02:28:03;;;;;;;36.58;8.43;;;;;;;6.23;100.00;102801.50;5092125;28;20051;-54
2023/05/26 02:30:29;;;;;;;40.95;9.20;;;;;;;6.21;100.00;102798.84;5092426;28;20032;-54
2023/05/26 02:32:54;;;;;;;34.22;8.35;;;;;;;6.13;100.00;102805.00;5092177;28;20032;-54
2023/05/26 02:35:19;;;;;;;37.60;8.25;;;;;;;6.12;100.00;102804.88;5092488;28;20375;-53
2023/05/26 02:37:45;;;;;;;40.75;9.02;;;;;;;6.12;100.00;102799.75;5092783;28;20077;-52
2023/05/26 02:40:10;;;;;;;37.10;9.43;;;;;;;6.08;100.00;102799.53;5091989;28;20403;-53
2023/05/26 02:42:36;;;;;;;38.85;9.02;;;;;;;6.08;100.00;102803.75;5092382;28;20494;-51
2023/05/26 02:45:01;;;;;;;40.63;8.75;;;;;;;6.10;100.00;102799.66;5092819;28;20016;-52
2023/05/26 02:47:26;;;;;;;37.45;9.57;;;;;;;6.05;100.00;102804.41;5091618;28;20111;-53
2023/05/26 02:49:51;;;;;;;36.65;8.50;;;;;;;6.05;100.00;102798.41;5092734;28;20373;-50
2023/05/26 02:52:17;;;;;;;35.67;9.35;;;;;;;6.01;100.00;102794.69;5092392;28;20020;-53
2023/05/26 02:54:42;;;;;;;41.63;9.20;;;;;;;5.99;100.00;102793.69;5091661;28;20031;-55
2023/05/26 02:57:07;;;;;;;39.80;9.30;;;;;;;5.96;100.00;102797.63;5092494;28;20024;-52
2023/05/26 02:59:32;;;;;;;34.10;9.20;;;;;;;5.99;100.00;102792.78;5092401;28;20032;-51
2023/05/26 03:01:58;;;;;;;35.40;9.63;;;;;;;6.01;100.00;102796.38;5091905;28;20470;-53
2023/05/26 03:04:23;;;;;;;36.92;8.75;;;;;;;5.94;100.00;102795.84;5092357;28;20020;-53
2023/05/26 03:06:48;;;;;;;35.67;8.77;;;;;;;5.96;100.00;102792.50;5092316;28;20386;-51
2023/05/26 03:09:13;;;;;;;43.63;9.68;;;;;;;5.91;100.00;102798.16;5092043;28;20027;-53
2023/05/26 03:11:39;;;;;;;40.05;9.55;;;;;;;5.91;100.00;102793.03;5093877;28;20430;-53
2023/05/26 03:14:05;;;;;;;42.75;10.25;;;;;;;5.89;100.00;102791.13;5096092;28;20024;-51
2023/05/26 03:16:30;;;;;;;40.28;9.38;;;;;;;5.81;100.00;102795.63;5095347;28;20016;-53
2023/05/26 03:18:56;;;;;;;34.85;9.10;;;;;;;5.79;100.00;102799.72;5095983;28;20044;-54
2023/05/26 03:21:21;;;;;;;37.55;8.68;;;;;;;5.73;100.00;102796.66;5095601;28;20065;-54
2023/05/26 03:23:46;;;;;;;36.92;10.02;;;;;;;5.71;100.00;102801.66;5095621;28;20024;-53
2023/05/26 03:26:11;;;;;;;44.80;9.93;;;;;;;5.68;100.00;102806.56;5095704;28;20032;-50
2023/05/26 03:28:37;;;;;;;38.42;9.75;;;;;;;5.65;100.00;102810.50;5095093;28;20036;-54
2023/05/26 03:31:02;;;;;;;38.08;9.27;;;;;;;5.59;100.00;102804.13;5095485;28;20107;-52
2023/05/26 03:33:29;;;;;;;43.50;10.35;;;;;;;5.46;100.00;102809.00;5095596;28;20028;-53
2023/05/26 03:35:54;;;;;;;40.15;10.23;;;;;;;5.38;100.00;102816.03;5095470;28;20077;-54
2023/05/26 03:38:19;;;;;;;48.25;10.15;;;;;;;5.35;100.00;102817.47;5094807;28;20024;-54
2023/05/26 03:40:44;;;;;;;38.28;9.45;;;;;;;5.31;100.00;102817.97;5095596;28;20032;-54
2023/05/26 03:43:10;;;;;;;34.38;9.73;;;;;;;5.25;100.00;102821.81;5094764;28;20033;-53
2023/05/26 03:45:36;;;;;;;39.72;9.90;;;;;;;5.20;100.00;102823.09;5095123;28;20428;-54
2023/05/26 03:48:01;;;;;;;41.17;10.30;;;;;;;5.15;100.00;102826.94;5095494;28;20032;-54
2023/05/26 03:50:26;;;;;;;38.70;10.05;;;;;;;5.09;100.00;102824.75;5094291;28;20024;-54
2023/05/26 03:52:52;;;;;;;31.38;8.80;;;;;;;5.06;100.00;102827.06;5095337;28;20055;-53
2023/05/26 03:55:17;;;;;;;37.55;9.43;;;;;;;5.02;100.00;102835.25;5095138;28;20036;-55
2023/05/26 03:57:43;;;;;;;38.90;9.70;;;;;;;5.04;100.00;102835.38;5094451;28;20054;-54
2023/05/26 04:00:10;;;;;;;38.42;9.85;;;;;;;5.02;100.00;102831.78;5095312;28;20114;-53
2023/05/26 04:02:36;;;;;;;34.45;9.38;;;;;;;5.04;100.00;102830.25;5095083;28;20035;-54
2023/05/26 04:05:01;;;;;;;37.67;10.20;;;;;;;5.02;100.00;102826.66;5094273;28;20024;-53
2023/05/26 04:07:27;;;;;;;40.70;10.73;;;;;;;5.01;100.00;102828.34;5094871;28;20067;-53
2023/05/26 04:09:52;;;;;;;38.53;9.88;;;;;;;5.06;100.00;102826.16;5094906;28;20058;-53
2023/05/26 04:12:17;;;;;;;38.20;10.48;;;;;;;5.08;100.00;102824.63;5094047;28;20059;-54
2023/05/26 04:14:43;;;;;;;42.88;10.63;;;;;;;5.10;100.00;102828.22;5094810;28;20024;-53
2023/05/26 04:17:08;;;;;;;49.15;11.38;;;;;;;5.12;100.00;102831.78;5094545;28;20475;-53
2023/05/26 04:19:33;;;;;;;43.35;9.82;;;;;;;5.12;100.00;102831.78;5094003;28;20028;-53
2023/05/26 04:21:59;;;;;;;45.33;10.40;;;;;;;5.16;100.00;102833.81;5094348;28;20027;-53
2023/05/26 04:24:26;;;;;;;42.90;9.95;;;;;;;5.17;100.00;102844.94;5093596;28;20043;-55
2023/05/26 04:26:52;;;;;;;39.47;10.55;;;;;;;5.19;100.00;102846.88;5094326;28;20028;-54
2023/05/26 04:29:18;;;;;;;42.85;11.00;;;;;;;5.24;100.00;102840.47;5094428;28;20026;-53
2023/05/26 04:31:43;;;;;;;53.08;10.90;;;;;;;5.28;100.00;102845.06;5094466;28;20020;-54
2023/05/26 04:34:10;;;;;;;40.53;10.93;;;;;;;5.33;100.00;102842.00;5094155;28;20383;-54
2023/05/26 04:36:39;;;;;;;34.92;10.35;;;;;;;5.35;100.00;102835.38;5094290;28;20032;-54
2023/05/26 04:39:06;;;;;;;45.17;11.40;;;;;;;5.41;100.00;102838.41;5094228;28;20379;-54
2023/05/26 04:41:32;;;;;;;53.03;12.20;;;;;;;5.46;100.00;102839.69;5093524;28;20780;-54
2023/05/26 04:43:58;;;;;;;46.15;11.60;;;;;;;5.52;100.00;102844.44;5094553;28;20024;-55
2023/05/26 04:46:24;;;;;;;36.95;10.88;;;;;;;5.59;100.00;102849.25;5093454;28;20031;-54
2023/05/26 04:48:49;;;;;;;41.03;11.60;;;;;;;5.64;100.00;102855.66;5094207;28;20032;-54
2023/05/26 04:51:14;;;;;;;50.60;11.82;;;;;;;5.72;100.00;102849.50;5094200;28;20062;-54
2023/05/26 04:53:40;;;;;;;44.20;11.00;;;;;;;5.77;100.00;102844.75;5092991;28;20028;-54
2023/05/26 04:56:06;;;;;;;49.25;11.60;;;;;;;5.83;100.00;102846.94;5094102;28;20028;-53
2023/05/26 04:58:36;;;;;;;40.70;11.00;;;;;;;5.90;100.00;102851.75;5093712;28;20472;-54
2023/05/26 05:01:02;;;;;;;42.22;11.38;;;;;;;5.99;100.00;102854.22;5093452;28;20050;-54
2023/05/26 05:03:29;;;;;;;46.57;12.87;;;;;;;6.09;100.00;102866.97;5093829;28;20104;-53
2023/05/26 05:05:54;;;;;;;47.40;11.50;;;;;;;6.13;100.00;102863.88;5093694;28;20107;-54
2023/05/26 05:08:20;;;;;;;47.63;11.25;;;;;;;6.24;100.00;102864.75;5093030;28;20119;-53
2023/05/26 05:10:45;;;;;;;37.65;10.32;;;;;;;6.29;100.00;102867.66;5094077;28;20103;-54
2023/05/26 05:13:10;;;;;;;49.92;11.52;;;;;;;6.36;100.00;102858.03;5093780;28;20048;-54
2023/05/26 05:15:36;;;;;;;45.58;11.75;;;;;;;6.48;100.00;102865.81;5093133;28;20020;-54
2023/05/26 05:18:02;;;;;;;36.72;9.75;;;;;;;6.58;100.00;102863.22;5093607;28;20040;-54
2023/05/26 05:20:27;;;;;;;37.03;10.55;;;;;;;6.69;100.00;102865.72;5093281;28;20069;-54
2023/05/26 05:22:53;;;;;;;41.22;11.75;;;;;;;6.78;100.00;102870.63;5093049;28;20027;-54
2023/05/26 05:25:18;;;;;;;40.50;10.85;;;;;;;6.87;100.00;102864.56;5093258;28;20020;-54
2023/05/26 05:27:44;;;;;;;35.95;10.23;;;;;;;6.97;100.00;102872.97;5093430;28;20115;-55
2023/05/26 05:30:11;;;;;;;36.80;10.30;;;;;;;7.07;100.00;102872.88;5093187;28;20031;-54
2023/05/26 05:32:37;;;;;;;45.78;10.80;;;;;;;7.14;100.00;102871.69;5093127;28;20437;-53
2023/05/26 05:35:02;;;;;;;39.33;10.43;;;;;;;7.24;100.00;102869.94;5092959;28;20503;-54
2023/05/26 05:37:27;;;;;;;43.20;10.32;;;;;;;7.39;100.00;102871.88;5092337;28;20035;-53
2023/05/26 05:39:53;;;;;;;31.02;9.48;;;;;;;7.42;100.00;102866.97;5093564;28;20028;-55
2023/05/26 05:42:21;;;;;;;39.17;9.38;;;;;;;7.55;100.00;102872.25;5092750;28;20024;-56
2023/05/26 05:44:46;;;;;;;35.08;9.75;;;;;;;7.63;100.00;102877.03;5092919;28;20043;-54
2023/05/26 05:47:12;;;;;;;39.30;10.48;;;;;;;7.79;100.00;102879.09;5093368;28;20063;-54
2023/05/26 05:49:37;;;;;;;37.33;10.10;;;;;;;7.90;100.00;102880.75;5092557;28;20383;-54
2023/05/26 05:52:02;;;;;;;43.25;11.18;;;;;;;8.01;100.00;102879.88;5092758;28;20035;-54
2023/05/26 05:54:28;;;;;;;35.00;9.82;;;;;;;8.15;100.00;102880.88;5092988;28;20429;-54
2023/05/26 05:56:53;;;;;;;40.63;9.93;;;;;;;8.29;100.00;102883.53;5092506;28;20024;-53
2023/05/26 05:59:18;;;;;;;36.20;9.45;;;;;;;8.37;100.00;102897.84;5093003;28;20451;-54
2023/05/26 06:01:43;;;;;;;38.20;9.57;;;;;;;8.54;100.00;102892.25;5093586;28;20028;-55
2023/05/26 06:04:09;;;;;;;35.75;9.00;;;;;;;8.62;100.00;102897.03;5092186;28;20425;-54
2023/05/26 06:06:35;;;;;;;34.72;8.50;;;;;;;8.61;100.00;102897.81;5092634;28;20036;-54
2023/05/26 06:09:01;;;;;;;28.58;8.18;;;;;;;8.69;100.00;102896.69;5092807;28;20475;-54
2023/05/26 06:11:26;;;;;;;34.80;8.60;;;;;;;8.85;100.00;102899.53;5092252;28;20113;-54
2023/05/26 06:13:51;;;;;;;41.03;8.73;;;;;;;8.88;100.00;102899.75;5092840;28;20147;-54
2023/05/26 06:16:16;;;;;;;37.92;8.40;;;;;;;9.01;100.00;102903.16;5092499;28;20035;-55
2023/05/26 06:18:42;;;;;;;35.00;8.90;;;;;;;9.08;100.00;102902.81;5092182;28;20048;-54
2023/05/26 06:21:07;;;;;;;30.90;8.20;;;;;;;9.19;99.90;102907.03;5092731;28;20380;-55
2023/05/26 06:23:32;;;;;;;29.17;7.80;;;;;;;9.25;98.17;102905.66;5092308;28;20067;-53
2023/05/26 06:25:58;;;;;;;36.83;8.38;;;;;;;9.35;97.92;102910.63;5092392;28;20020;-54
2023/05/26 06:28:23;;;;;;;30.85;8.40;;;;;;;9.38;98.35;102903.13;5092480;28;20032;-53
2023/05/26 06:30:49;;;;;;;32.90;8.45;;;;;;;9.43;97.86;102911.16;5092734;28;20034;-54
2023/05/26 06:33:14;;;;;;;38.25;9.25;;;;;;;9.40;95.62;102901.56;5092251;28;20046;-54
2023/05/26 06:35:39;;;;;;;39.75;9.32;;;;;;;9.40;95.76;102901.56;5092505;28;20099;-54
2023/05/26 06:38:04;;;;;;;35.28;9.50;;;;;;;9.46;96.35;102901.94;5092428;28;20491;-54
2023/05/26 06:40:30;;;;;;;31.42;8.57;;;;;;;9.51;95.23;102894.53;5091981;28;20020;-54
2023/05/26 06:42:55;;;;;;;37.80;9.07;;;;;;;9.51;93.89;102907.41;5092853;28;20024;-53
2023/05/26 06:45:20;;;;;;;35.20;8.45;;;;;;;9.53;94.56;102901.56;5092173;28;20050;-54
2023/05/26 06:47:47;;;;;;;30.10;7.47;;;;;;;9.63;94.77;102907.34;5095972;28;20073;-52
2023/05/26 06:50:12;;;;;;;29.77;8.43;;;;;;;9.64;93.50;102906.53;5096719;28;20024;-54
2023/05/26 06:52:38;;;;;;;30.70;8.50;;;;;;;9.72;93.76;102902.78;5095868;28;20117;-54
2023/05/26 06:55:03;;;;;;;34.22;8.27;;;;;;;9.76;92.67;102907.38;5096226;28;20026;-54
2023/05/26 06:57:28;;;;;;;34.53;8.38;;;;;;;9.83;92.80;102904.41;5096409;28;20105;-51
2023/05/26 06:59:54;;;;;;;37.75;8.40;;;;;;;9.95;93.09;102916.28;5096329;28;20077;-53
2023/05/26 07:02:19;;;;;;;39.95;8.80;;;;;;;9.92;91.44;102909.25;5095535;28;20038;-54
2023/05/26 07:04:45;;;;;;;33.13;8.80;;;;;;;9.98;91.98;102909.66;5096423;28;20024;-53
2023/05/26 07:07:11;;;;;;;32.17;8.50;;;;;;;9.91;90.48;102912.63;5095334;28;20024;-53
2023/05/26 07:09:36;;;;;;;36.72;8.27;;;;;;;9.93;89.97;102918.78;5096128;28;20024;-54
2023/05/26 07:12:02;;;;;;;33.08;8.02;;;;;;;10.08;92.00;102910.25;5096100;28;20024;-54
2023/05/26 07:14:27;;;;;;;35.50;9.07;;;;;;;10.09;90.04;102904.31;5095128;28;20024;-55
2023/05/26 07:16:52;;;;;;;37.30;9.13;;;;;;;10.20;90.69;102911.06;5096086;28;20044;-54
2023/05/26 07:19:18;;;;;;;34.03;8.40;;;;;;;10.36;91.29;102918.13;5095346;28;20040;-54
2023/05/26 07:21:43;;;;;;;30.90;7.90;;;;;;;10.43;90.13;102910.00;5095518;28;20456;-54
2023/05/26 07:24:08;;;;;;;32.65;8.48;;;;;;;10.50;88.52;102912.13;5096139;28;20031;-54
2023/05/26 07:26:33;;;;;;;33.05;8.18;;;;;;;10.59;88.76;102916.09;5095370;28;20497;-54
2023/05/26 07:28:59;;;;;;;37.35;8.85;;;;;;;10.68;87.98;102919.25;5095319;28;20032;-54
2023/05/26 07:31:24;;;;;;;32.03;8.93;;;;;;;11.00;90.13;102920.34;5095558;28;20020;-54
2023/05/26 07:33:50;;;;;;;35.03;7.88;;;;;;;10.92;85.97;102919.00;5095461;28;20024;-55
2023/05/26 07:36:15;;;;;;;32.60;8.10;;;;;;;11.07;85.90;102916.47;5094982;28;20027;-54
2023/05/26 07:38:41;;;;;;;31.73;8.60;;;;;;;11.10;85.34;102916.63;5095562;28;20589;-54
2023/05/26 07:41:06;;;;;;;32.08;8.43;;;;;;;11.06;85.11;102918.13;5095555;28;20049;-54
2023/05/26 07:43:31;;;;;;;29.42;7.53;;;;;;;11.04;84.28;102915.47;5094812;28;20487;-55
2023/05/26 07:45:58;;;;;;;36.08;8.45;;;;;;;11.13;85.83;102916.81;5095645;28;20353;-55
2023/05/26 07:48:23;;;;;;;29.53;7.73;;;;;;;11.12;84.88;102913.34;5094944;28;20115;-53
2023/05/26 07:50:49;;;;;;;28.33;7.82;;;;;;;11.07;84.28;102907.03;5094837;28;20104;-53
2023/05/26 07:53:14;;;;;;;26.50;7.78;;;;;;;11.10;85.13;102914.94;5095593;28;20020;-53
2023/05/26 07:55:39;;;;;;;28.33;8.25;;;;;;;11.04;83.46;102917.16;5094930;28;20069;-53
2023/05/26 07:58:05;;;;;;;29.15;7.38;;;;;;;11.13;82.83;102916.81;5094571;28;20379;-53
2023/05/26 08:00:30;;;;;;;32.65;8.27;;;;;;;11.26;83.09;102919.34;5095176;28;20031;-53
2023/05/26 08:02:55;;;;;;;33.33;7.30;;;;;;;11.36;83.38;102915.63;5094975;28;20031;-53
2023/05/26 08:05:21;;;;;;;27.75;8.35;;;;;;;11.50;82.86;102909.59;5094479;28;20078;-53
2023/05/26 08:07:46;;;;;;;31.05;7.78;;;;;;;11.75;84.24;102915.28;5095272;28;20368;-54
2023/05/26 08:10:12;;;;;;;32.78;8.05;;;;;;;11.80;80.21;102913.88;5095045;28;20024;-53
2023/05/26 08:12:37;;;;;;;24.70;7.43;;;;;;;11.94;79.79;102917.25;5094344;28;20101;-54
2023/05/26 08:15:13;;;;;;;33.65;8.55;;;;;;;12.04;79.55;102911.84;5095156;28;20077;-52
2023/05/26 08:17:38;;;;;;;25.98;7.18;;;;;;;12.32;81.24;102910.81;5093707;28;20510;-53
2023/05/26 08:20:04;;;;;;;30.13;7.70;;;;;;;12.31;76.85;102909.03;5094789;28;20020;-53
2023/05/26 08:22:29;;;;;;;31.95;8.10;;;;;;;12.46;77.01;102917.63;5094239;28;20585;-54
2023/05/26 08:24:55;;;;;;;36.67;8.35;;;;;;;12.44;74.38;102914.06;5094364;28;20103;-54
2023/05/26 08:27:20;;;;;;;35.90;8.25;;;;;;;12.62;76.52;102911.59;5094743;28;20047;-51
2023/05/26 08:29:45;;;;;;;28.98;7.68;;;;;;;12.60;77.21;102907.13;5094660;28;20107;-54
2023/05/26 08:32:11;;;;;;;28.45;7.70;;;;;;;12.59;75.66;102910.53;5094107;28;20134;-53
2023/05/26 08:34:36;;;;;;;30.38;7.47;;;;;;;12.64;73.90;102914.25;5094337;28;20107;-51
2023/05/26 08:37:01;;;;;;;33.90;7.60;;;;;;;12.67;72.64;102910.13;5094520;28;20024;-52
2023/05/26 08:39:26;;;;;;;30.08;7.50;;;;;;;12.77;73.83;102902.88;5093869;28;20111;-53
2023/05/26 08:41:56;;;;;;;32.65;8.15;;;;;;;12.81;73.23;102903.13;5094443;28;20020;-53
2023/05/26 08:44:22;;;;;;;32.60;8.25;;;;;;;12.84;72.90;102908.44;5093823;28;20422;-53
2023/05/26 08:46:55;;;;;;;23.08;6.65;;;;;;;12.93;72.43;102907.19;5093861;28;20036;-53
2023/05/26 08:49:21;;;;;;;26.25;7.93;;;;;;;12.95;70.98;102906.44;5093978;28;20395;-53
2023/05/26 08:52:00;;;;;;;23.73;7.07;;;;;;;13.16;71.15;102904.09;5094038;28;20384;-53
2023/05/26 08:54:26;;;;;;;25.67;7.05;;;;;;;13.19;68.57;102895.59;5093614;28;20053;-53
2023/05/26 08:56:52;;;;;;;22.38;6.68;;;;;;;13.22;66.81;102897.44;5094342;28;20024;-53
2023/05/26 08:59:19;;;;;;;24.40;6.85;;;;;;;13.30;66.30;102903.94;5093526;28;20032;-53
2023/05/26 09:01:44;;;;;;;28.85;6.90;;;;;;;13.47;65.42;102903.09;5093393;28;20020;-52
2023/05/26 09:04:09;;;;;;;23.85;6.30;;;;;;;13.71;69.29;102907.75;5094204;28;20357;-53
2023/05/26 09:06:36;;;;;;;18.67;6.55;;;;;;;13.83;64.81;102902.28;5093290;28;20151;-54
2023/05/26 09:09:01;;;;;;;25.33;6.35;;;;;;;13.94;64.26;102910.56;5093343;28;20020;-51
2023/05/26 09:11:30;;;;;;;23.75;5.97;;;;;;;14.12;65.42;102895.91;5093600;28;20074;-53
2023/05/26 09:13:56;;;;;;;27.00;6.97;;;;;;;14.16;63.72;102905.63;5093355;28;20024;-53
2023/05/26 09:16:26;;;;;;;19.80;5.85;;;;;;;14.24;65.86;102903.41;5093389;28;20020;-54
2023/05/26 09:18:56;;;;;;;23.80;6.20;;;;;;;14.24;61.67;102894.72;5093306;28;20586;-54
2023/05/26 09:21:22;;;;;;;24.15;6.43;;;;;;;14.45;62.47;102900.03;5093060;28;20032;-53
2023/05/26 09:23:54;;;;;;;23.90;6.60;;;;;;;14.41;60.85;102914.56;5093661;28;20019;-53
2023/05/26 09:26:28;;;;;;;23.90;6.65;;;;;;;14.45;58.69;102916.47;5093248;28;20020;-53
2023/05/26 09:28:54;;;;;;;25.75;6.18;;;;;;;14.54;58.67;102907.34;5092933;28;20027;-53
2023/05/26 09:31:19;;;;;;;20.10;6.18;;;;;;;14.62;59.31;102908.59;5093412;28;20032;-52
2023/05/26 09:33:47;;;;;;;50.85;9.38;;;;;;;14.70;55.72;102912.44;5092949;28;20380;-53
2023/05/26 09:36:15;;;;;;;26.30;6.82;;;;;;;14.78;54.96;102916.31;5093030;28;20024;-53
2023/05/26 09:38:42;;;;;;;23.27;6.28;;;;;;;15.00;53.61;102916.38;5093329;28;20084;-54
2023/05/26 09:41:07;;;;;;;18.75;5.50;;;;;;;15.08;52.44;102915.91;5093070;28;20024;-53
2023/05/26 09:43:33;;;;;;;20.65;5.75;;;;;;;15.25;53.91;102905.34;5092372;28;20039;-53
2023/05/26 09:45:59;;;;;;;22.35;6.20;;;;;;;15.30;55.07;102915.13;5093276;28;20476;-52
2023/05/26 09:48:24;;;;;;;20.27;6.25;;;;;;;15.63;51.68;102908.69;5092838;28;20097;-53
2023/05/26 09:50:51;;;;;;;19.80;5.70;;;;;;;15.79;50.53;102923.22;5092637;28;20020;-53
2023/05/26 09:53:16;;;;;;;22.10;5.85;;;;;;;16.06;52.27;102910.47;5092946;28;20463;-48
2023/05/26 09:55:44;;;;;;;22.17;5.80;;;;;;;16.05;50.01;102902.59;5092941;28;20032;-52
2023/05/26 09:58:11;;;;;;;20.95;5.82;;;;;;;16.18;51.19;102899.66;5092525;28;20036;-51
2023/05/26 10:00:39;;;;;;;22.30;6.20;;;;;;;16.25;48.80;102899.06;5092780;28;20047;-51
2023/05/26 10:03:06;;;;;;;19.60;5.82;;;;;;;16.66;50.03;102900.63;5092603;28;20048;-52
2023/05/26 10:05:32;;;;;;;28.17;6.05;;;;;;;16.87;49.49;102903.97;5092982;28;20024;-51
2023/05/26 10:07:59;;;;;;;18.10;5.55;;;;;;;17.12;47.58;102897.09;5092695;28;20479;-52
2023/05/26 10:10:27;;;;;;;14.48;5.15;;;;;;;17.48;45.57;102906.13;5092224;28;20051;-52
2023/05/26 10:12:53;;;;;;;90.90;14.25;;;;;;;18.15;44.75;102901.38;5093188;28;20081;-51
2023/05/26 10:15:18;;;;;;;21.23;5.75;;;;;;;18.33;41.93;102901.03;5092596;28;20020;-52
2023/05/26 10:17:45;;;;;;;13.00;5.30;;;;;;;18.78;40.64;102899.75;5092288;28;20139;-52
2023/05/26 10:20:10;;;;;;;15.95;5.65;;;;;;;19.55;40.95;102892.25;5094103;28;20364;-52
2023/05/26 10:22:50;;;;;;;66.55;11.40;;;;;;;20.10;39.44;102891.81;5096686;28;20073;-52
2023/05/26 10:25:41;;;;;;;23.42;6.28;;;;;;;20.76;40.43;102892.38;5096501;28;20024;-50
2023/05/26 10:28:17;;;;;;;16.27;5.30;;;;;;;20.98;36.79;102879.66;5097110;28;20028;-52
2023/05/26 10:30:43;;;;;;;496.95;73.20;;;;;;;21.49;35.64;102888.44;5096745;28;20063;-52
2023/05/26 10:33:10;;;;;;;49.22;9.27;;;;;;;21.98;35.91;102889.22;5096402;28;20051;-52
2023/05/26 10:35:35;;;;;;;24.63;6.63;;;;;;;22.06;34.79;102891.97;5096651;28;20055;-52
2023/05/26 10:38:00;;;;;;;16.80;5.13;;;;;;;23.24;32.64;102883.78;5096163;28;20115;-51
2023/05/26 10:40:29;;;;;;;21.90;5.10;;;;;;;23.31;31.13;102885.59;5096600;28;20031;-53
2023/05/26 10:43:23;;;;;;;15.75;4.55;;;;;;;23.51;33.60;102887.50;5096647;28;20032;-51
2023/05/26 10:46:00;;;;;;;17.58;4.80;;;;;;;23.25;30.07;102882.03;5096239;28;20112;-52
2023/05/26 10:48:39;;;;;;;15.35;4.50;;;;;;;23.53;31.12;102885.78;5096316;28;20471;-52
2023/05/26 10:51:07;;;;;;;17.67;5.28;;;;;;;23.42;29.54;102884.78;5096581;28;20039;-52
2023/05/26 10:53:35;;;;;;;16.85;5.25;;;;;;;24.26;29.59;102878.34;5095699;28;20016;-52
2023/05/26 10:56:05;;;;;;;16.35;5.00;;;;;;;23.98;28.83;102884.34;5096639;28;20035;-51
2023/05/26 10:58:35;;;;;;;15.95;5.00;;;;;;;24.31;28.37;102877.50;5095885;28;20024;-52
2023/05/26 11:01:02;;;;;;;13.77;5.15;;;;;;;24.36;28.77;102876.66;5096117;28;20024;-48
2023/05/26 11:03:36;;;;;;;14.73;4.75;;;;;;;24.94;29.47;102876.81;5096252;28;20047;-49
2023/05/26 11:06:02;;;;;;;15.82;4.70;;;;;;;24.54;26.22;102886.38;5096070;28;20490;-50
2023/05/26 11:08:36;;;;;;;17.63;4.85;;;;;;;24.79;27.86;102874.16;5095561;28;20030;-50
2023/05/26 11:11:04;;;;;;;17.52;4.93;;;;;;;24.24;28.01;102875.72;5096248;28;20089;-49
2023/05/26 11:13:50;;;;;;;14.82;4.78;;;;;;;25.45;27.83;102878.69;5095476;28;20082;-50
2023/05/26 11:16:17;;;;;;;;;;;;;;;26.37;28.93;102871.44;5096375;28;20158;-48